Time;durP1;ratioP1;P1;durP2;ratioP2;P2;SDS_P1;SDS_P2;PMS_P1;PMS_P2;Temp;Humidity;BMP_temperature;BMP_pressure;BME280_temperature;BME280_humidity;BME280_pressure;Samples;Min_cycle;Max_cycle;Signal;HPM_P1;HPM_P2
2020/12/15 00:01:46;;;;;;;4.37;2.40;;;8.50;99.90;;;;;;4963344;28;20215;-80
2020/12/15 00:04:12;;;;;;;3.80;2.27;;;8.40;99.90;;;;;;4964165;28;20184;-81
2020/12/15 00:06:37;;;;;;;3.83;2.00;;;8.50;99.90;;;;;;4963499;28;20191;-78
2020/12/15 00:09:03;;;;;;;2.60;1.90;;;8.50;99.90;;;;;;4963949;28;20187;-80
2020/12/15 00:11:28;;;;;;;3.07;2.10;;;8.60;99.90;;;;;;4964005;28;20219;-81
2020/12/15 00:13:54;;;;;;;3.37;2.10;;;8.70;99.90;;;;;;4979647;28;20197;-80
2020/12/15 00:16:20;;;;;;;2.37;2.13;;;8.70;99.90;;;;;;4970746;28;20184;-78
2020/12/15 00:18:45;;;;;;;2.63;2.07;;;8.70;99.90;;;;;;4999238;28;20192;-79
2020/12/15 00:21:18;;;;;;;2.30;1.87;;;8.80;99.90;;;;;;4966286;28;20240;-80
2020/12/15 00:23:44;;;;;;;3.47;2.20;;;8.80;99.90;;;;;;4983162;28;20557;-79
2020/12/15 00:26:09;;;;;;;2.10;1.90;;;8.80;99.90;;;;;;4980943;28;20184;-80
2020/12/15 00:28:35;;;;;;;2.87;2.00;;;8.80;99.90;;;;;;4965652;28;20195;-81
2020/12/15 00:31:00;;;;;;;3.63;2.10;;;8.80;99.90;;;;;;4965102;28;20218;-80
2020/12/15 00:33:26;;;;;;;4.57;2.40;;;8.80;99.90;;;;;;4965492;28;20176;-79
2020/12/15 00:35:51;;;;;;;3.37;2.00;;;8.80;99.90;;;;;;4981112;28;20275;-78
2020/12/15 00:38:17;;;;;;;2.23;1.80;;;8.90;99.90;;;;;;4980584;28;20204;-80
2020/12/15 00:40:42;;;;;;;3.17;2.20;;;8.90;99.90;;;;;;4982091;28;20648;-79
2020/12/15 00:43:08;;;;;;;2.53;2.00;;;8.80;99.90;;;;;;4964188;28;20210;-79
2020/12/15 00:45:33;;;;;;;3.03;1.83;;;8.80;99.90;;;;;;4980075;28;20562;-79
2020/12/15 00:47:59;;;;;;;2.87;1.77;;;8.90;99.90;;;;;;4963609;28;20632;-81
2020/12/15 00:50:25;;;;;;;2.80;2.03;;;8.90;99.90;;;;;;4963539;28;20180;-81
2020/12/15 00:52:50;;;;;;;3.07;2.10;;;8.80;99.90;;;;;;4963612;28;20200;-79
2020/12/15 00:55:16;;;;;;;4.30;2.27;;;8.80;99.90;;;;;;4963972;28;20180;-81
2020/12/15 00:57:41;;;;;;;2.07;1.70;;;8.70;99.90;;;;;;4964113;28;20180;-78
2020/12/15 01:00:08;;;;;;;3.17;1.90;;;8.70;99.90;;;;;;4964699;28;20190;-79
2020/12/15 01:02:34;;;;;;;3.00;1.90;;;8.50;99.90;;;;;;4979906;28;20268;-79
2020/12/15 01:04:59;;;;;;;2.90;2.00;;;8.50;99.90;;;;;;4964119;28;20726;-78
2020/12/15 01:07:25;;;;;;;2.27;1.83;;;8.40;99.90;;;;;;4979085;28;20176;-78
2020/12/15 01:09:50;;;;;;;2.83;2.10;;;8.50;99.90;;;;;;4963362;28;20274;-80
2020/12/15 01:12:16;;;;;;;3.03;2.00;;;8.60;99.90;;;;;;4961606;28;20310;-79
2020/12/15 01:14:41;;;;;;;3.73;2.07;;;8.50;99.90;;;;;;4975176;28;20184;-78
2020/12/15 01:17:08;;;;;;;4.20;1.90;;;8.40;99.90;;;;;;4991211;28;20224;-79
2020/12/15 01:19:34;;;;;;;4.00;1.83;;;8.50;99.90;;;;;;4959910;28;20180;-78
2020/12/15 01:21:59;;;;;;;2.53;1.90;;;8.50;99.90;;;;;;4975877;28;20314;-79
2020/12/15 01:24:25;;;;;;;2.47;2.10;;;8.50;99.90;;;;;;4975463;28;20208;-80
2020/12/15 01:26:52;;;;;;;3.13;2.13;;;8.50;99.90;;;;;;4975427;28;20211;-78
2020/12/15 01:29:17;;;;;;;2.20;1.97;;;8.50;99.90;;;;;;4992124;28;20192;-78
2020/12/15 01:31:43;;;;;;;3.57;2.00;;;8.40;99.90;;;;;;4959047;28;20273;-79
2020/12/15 01:34:08;;;;;;;4.63;2.10;;;8.40;99.90;;;;;;4975279;28;20186;-78
2020/12/15 01:36:34;;;;;;;2.73;2.20;;;8.40;99.90;;;;;;4974962;28;20176;-78
2020/12/15 01:38:59;;;;;;;2.43;1.77;;;8.30;99.90;;;;;;4991663;28;20219;-79
2020/12/15 01:41:25;;;;;;;3.40;2.17;;;8.30;99.90;;;;;;4975005;28;20201;-78
2020/12/15 01:44:01;;;;;;;4.17;2.33;;;8.30;99.90;;;;;;4958953;28;20180;-78
2020/12/15 01:46:27;;;;;;;2.57;1.97;;;8.30;99.90;;;;;;4976252;28;20262;-79
2020/12/15 01:48:53;;;;;;;4.70;2.20;;;8.20;99.90;;;;;;4975632;28;20184;-78
2020/12/15 01:51:19;;;;;;;3.93;2.20;;;8.20;99.90;;;;;;4978426;28;20311;-78
2020/12/15 01:53:45;;;;;;;4.10;2.20;;;8.10;99.90;;;;;;4962377;28;20273;-79
2020/12/15 01:56:11;;;;;;;3.50;2.40;;;8.10;99.90;;;;;;4978344;28;20189;-78
2020/12/15 01:58:37;;;;;;;2.60;2.20;;;8.00;99.90;;;;;;4978532;28;20655;-78
2020/12/15 02:01:03;;;;;;;3.47;2.10;;;7.90;99.90;;;;;;4978190;28;20176;-79
2020/12/15 02:03:28;;;;;;;3.53;2.10;;;7.90;99.90;;;;;;4978518;28;20194;-78
2020/12/15 02:05:54;;;;;;;2.27;2.07;;;7.90;99.90;;;;;;4994423;28;20207;-79
2020/12/15 02:08:19;;;;;;;4.00;2.17;;;7.80;99.90;;;;;;4994466;28;20221;-79
2020/12/15 02:10:45;;;;;;;2.67;1.77;;;7.90;99.90;;;;;;4961943;28;20198;-80
2020/12/15 02:13:10;;;;;;;4.07;2.00;;;7.90;99.90;;;;;;4994560;28;20196;-79
2020/12/15 02:15:36;;;;;;;2.77;2.00;;;8.00;99.90;;;;;;4978336;28;20180;-79
2020/12/15 02:18:01;;;;;;;2.00;1.80;;;7.90;99.90;;;;;;4961788;28;20276;-79
2020/12/15 02:20:27;;;;;;;3.67;1.97;;;7.90;99.90;;;;;;5029423;23;20235;-80
2020/12/15 02:22:52;;;;;;;3.03;2.03;;;7.90;99.90;;;;;;5034771;28;20171;-81
2020/12/15 02:25:18;;;;;;;2.43;1.83;;;7.90;99.90;;;;;;5050273;28;20203;-81
2020/12/15 02:27:43;;;;;;;1.93;1.70;;;7.90;99.90;;;;;;5050972;28;20202;-80
2020/12/15 02:30:09;;;;;;;3.67;2.07;;;8.00;99.90;;;;;;5020220;28;20238;-81
2020/12/15 02:32:35;;;;;;;3.47;1.90;;;7.90;99.90;;;;;;4997768;28;20213;-81
2020/12/15 02:35:00;;;;;;;3.83;2.00;;;7.90;99.90;;;;;;4996164;28;20741;-81
2020/12/15 02:37:26;;;;;;;3.13;2.00;;;7.90;99.90;;;;;;5006801;28;20207;-80
2020/12/15 02:39:55;;;;;;;3.17;2.10;;;7.80;99.90;;;;;;4996389;28;20207;-81
2020/12/15 02:42:21;;;;;;;4.37;1.97;;;7.90;99.90;;;;;;5003542;28;20247;-81
2020/12/15 02:44:46;;;;;;;3.10;1.73;;;7.90;99.90;;;;;;5010739;28;20700;-81
2020/12/15 02:47:12;;;;;;;2.37;1.70;;;7.90;99.90;;;;;;5010823;28;20728;-81
2020/12/15 02:49:37;;;;;;;2.00;1.80;;;8.00;99.90;;;;;;5025801;28;20200;-81
2020/12/15 02:52:06;;;;;;;3.07;2.00;;;7.90;99.90;;;;;;5009612;28;20214;-81
2020/12/15 02:54:31;;;;;;;2.00;1.70;;;8.10;99.90;;;;;;5009562;28;20188;-80
2020/12/15 02:56:57;;;;;;;2.17;1.83;;;8.10;99.90;;;;;;5008919;28;20182;-81
2020/12/15 02:59:22;;;;;;;2.07;1.87;;;8.10;99.90;;;;;;5008497;28;20241;-81
2020/12/15 03:01:51;;;;;;;3.17;2.33;;;8.20;99.90;;;;;;5006111;28;20175;-81
2020/12/15 03:04:17;;;;;;;3.37;2.10;;;8.10;99.90;;;;;;5007096;28;20180;-80
2020/12/15 03:06:42;;;;;;;2.73;2.00;;;8.10;99.90;;;;;;5021700;28;20179;-81
2020/12/15 03:09:09;;;;;;;2.30;1.90;;;8.00;99.90;;;;;;5004628;28;20252;-80
2020/12/15 03:11:35;;;;;;;2.77;2.10;;;8.10;99.90;;;;;;5003466;28;20199;-81
2020/12/15 03:14:02;;;;;;;3.97;1.90;;;8.10;99.90;;;;;;5001820;28;20852;-80
2020/12/15 03:16:27;;;;;;;2.47;2.00;;;8.10;99.90;;;;;;5016100;28;20170;-80
2020/12/15 03:18:53;;;;;;;4.37;2.07;;;8.10;99.90;;;;;;5014458;28;20576;-80
2020/12/15 03:21:20;;;;;;;2.47;2.07;;;8.00;99.90;;;;;;4998409;28;20623;-81
2020/12/15 03:23:46;;;;;;;3.30;2.03;;;8.00;99.90;;;;;;5011873;28;20207;-81
2020/12/15 03:26:12;;;;;;;3.37;2.53;;;7.90;99.90;;;;;;5011701;28;20183;-81
2020/12/15 03:28:37;;;;;;;3.60;2.27;;;7.90;99.90;;;;;;5028790;28;20177;-80
2020/12/15 03:31:03;;;;;;;3.23;2.27;;;7.90;99.90;;;;;;5013472;28;20214;-80
2020/12/15 03:33:28;;;;;;;3.10;2.30;;;7.90;99.90;;;;;;5029232;28;20181;-81
2020/12/15 03:35:54;;;;;;;3.27;2.13;;;7.90;99.90;;;;;;5011193;28;20179;-80
2020/12/15 03:38:19;;;;;;;4.83;2.50;;;7.90;99.90;;;;;;5011830;28;20596;-81
2020/12/15 03:40:45;;;;;;;2.83;2.03;;;8.00;99.90;;;;;;5011208;28;20679;-80
2020/12/15 03:43:11;;;;;;;3.77;2.70;;;7.90;99.90;;;;;;5027913;28;20183;-81
2020/12/15 03:45:40;;;;;;;2.97;2.40;;;7.90;99.90;;;;;;5028246;28;20178;-81
2020/12/15 03:48:06;;;;;;;2.70;2.23;;;7.90;99.90;;;;;;5011333;28;20183;-81
2020/12/15 03:50:31;;;;;;;4.17;2.60;;;7.90;99.90;;;;;;5028243;28;20257;-81
2020/12/15 03:52:57;;;;;;;5.30;2.50;;;7.90;99.90;;;;;;5027301;28;20183;-81
2020/12/15 03:55:22;;;;;;;3.03;2.50;;;7.90;99.90;;;;;;5029028;28;20214;-80
2020/12/15 03:57:51;;;;;;;3.53;3.03;;;7.90;99.90;;;;;;5011911;28;20201;-81
2020/12/15 04:00:17;;;;;;;7.10;2.63;;;7.90;99.90;;;;;;5027725;28;20219;-81
2020/12/15 04:02:43;;;;;;;4.63;3.00;;;7.90;99.90;;;;;;5027796;28;20168;-82
2020/12/15 04:05:09;;;;;;;5.20;3.00;;;7.90;99.90;;;;;;5012151;28;20259;-81
2020/12/15 04:07:35;;;;;;;5.63;3.17;;;7.90;99.90;;;;;;5011236;28;20201;-81
2020/12/15 04:10:00;;;;;;;3.07;2.73;;;8.00;99.90;;;;;;5011741;28;20219;-80
2020/12/15 04:12:26;;;;;;;3.97;2.60;;;7.90;99.90;;;;;;5027239;28;20199;-80
2020/12/15 04:14:51;;;;;;;2.83;2.50;;;8.00;99.90;;;;;;5011760;28;20190;-81
2020/12/15 04:17:17;;;;;;;4.20;2.60;;;8.10;99.90;;;;;;5011857;28;20183;-80
2020/12/15 04:19:42;;;;;;;4.93;3.07;;;8.10;99.90;;;;;;5011011;28;20759;-81
2020/12/15 04:22:08;;;;;;;4.73;2.93;;;8.20;99.90;;;;;;5011141;28;20194;-81
2020/12/15 04:24:33;;;;;;;4.33;2.87;;;8.10;99.90;;;;;;5010359;28;20716;-81
2020/12/15 04:26:59;;;;;;;3.83;2.97;;;8.20;99.90;;;;;;5027106;28;20175;-81
2020/12/15 04:29:25;;;;;;;3.83;3.10;;;8.20;99.90;;;;;;5010117;28;20250;-81
2020/12/15 04:31:50;;;;;;;4.23;3.13;;;8.10;99.90;;;;;;5010148;28;20308;-81
2020/12/15 04:34:16;;;;;;;5.67;3.70;;;8.10;99.90;;;;;;5026460;28;20174;-81
2020/12/15 04:36:42;;;;;;;5.17;4.30;;;8.20;99.90;;;;;;5009701;28;20233;-80
2020/12/15 04:39:07;;;;;;;6.20;5.07;;;8.20;99.90;;;;;;5009963;28;20592;-81
2020/12/15 04:41:33;;;;;;;5.70;4.10;;;8.20;99.90;;;;;;5009698;28;20183;-81
2020/12/15 04:43:58;;;;;;;5.23;3.83;;;8.20;99.90;;;;;;5026249;28;20178;-80
2020/12/15 04:46:24;;;;;;;5.23;3.60;;;8.20;99.90;;;;;;5008926;28;20607;-80
2020/12/15 04:49:10;;;;;;;4.33;3.40;;;8.20;99.90;;;;;;5008916;28;20199;-80
2020/12/15 04:51:43;;;;;;;3.83;3.30;;;8.20;99.90;;;;;;4993158;28;20222;-80
2020/12/15 04:54:09;;;;;;;5.60;3.37;;;8.10;99.90;;;;;;5009541;28;20646;-81
2020/12/15 04:56:35;;;;;;;6.83;3.93;;;8.10;99.90;;;;;;5009806;28;20179;-81
2020/12/15 04:59:00;;;;;;;4.03;3.40;;;8.10;99.90;;;;;;5009252;28;20235;-81
2020/12/15 05:01:26;;;;;;;6.03;3.70;;;8.10;99.90;;;;;;5010314;28;20243;-81
2020/12/15 05:03:52;;;;;;;4.23;3.33;;;8.20;99.90;;;;;;5009947;28;20281;-80
2020/12/15 05:06:20;;;;;;;4.03;3.33;;;8.10;99.90;;;;;;5026836;28;20175;-81
2020/12/15 05:08:47;;;;;;;6.10;3.83;;;8.10;99.90;;;;;;5010190;28;20183;-82
2020/12/15 05:11:12;;;;;;;5.27;3.40;;;8.20;99.90;;;;;;5025784;28;20230;-81
2020/12/15 05:13:38;;;;;;;4.77;3.43;;;8.20;99.90;;;;;;5009742;28;20252;-80
2020/12/15 05:16:03;;;;;;;6.57;3.73;;;8.10;99.90;;;;;;5026764;28;20189;-81
2020/12/15 05:18:29;;;;;;;3.90;3.50;;;8.10;99.90;;;;;;5010909;28;20243;-82
2020/12/15 05:20:54;;;;;;;3.73;3.33;;;8.10;99.90;;;;;;5011248;28;20199;-81
2020/12/15 05:23:20;;;;;;;5.27;3.93;;;8.10;99.90;;;;;;5028305;28;20178;-81
2020/12/15 05:25:46;;;;;;;5.67;3.60;;;8.20;99.90;;;;;;5014522;28;20180;-80
2020/12/15 05:28:13;;;;;;;4.70;3.90;;;8.20;99.90;;;;;;5014548;28;20182;-81
2020/12/15 05:30:38;;;;;;;5.20;4.00;;;8.20;99.90;;;;;;5015270;28;20814;-81
2020/12/15 05:33:08;;;;;;;5.20;3.63;;;8.20;99.90;;;;;;5016558;28;20183;-81
2020/12/15 05:35:34;;;;;;;5.27;4.00;;;8.20;99.90;;;;;;5016791;28;20195;-81
2020/12/15 05:38:01;;;;;;;6.00;4.20;;;8.20;99.90;;;;;;5031872;28;20172;-81
2020/12/15 05:40:26;;;;;;;7.47;3.97;;;8.20;99.90;;;;;;5012398;28;20191;-80
2020/12/15 05:42:56;;;;;;;6.00;4.40;;;8.30;99.90;;;;;;5013653;28;20661;-81
2020/12/15 05:45:21;;;;;;;6.70;4.17;;;8.30;99.90;;;;;;5024063;28;20179;-80
2020/12/15 05:47:48;;;;;;;6.90;3.90;;;8.20;99.90;;;;;;5006393;28;20176;-80
2020/12/15 05:50:24;;;;;;;4.90;4.10;;;8.20;99.90;;;;;;5026555;28;20192;-81
2020/12/15 05:52:58;;;;;;;6.10;4.27;;;8.30;99.90;;;;;;5003399;28;20183;-81
2020/12/15 05:55:23;;;;;;;6.17;4.20;;;8.30;99.90;;;;;;4996106;28;20254;-81
2020/12/15 05:57:50;;;;;;;5.13;4.20;;;8.30;99.90;;;;;;5012148;28;20639;-81
2020/12/15 06:00:16;;;;;;;5.17;4.20;;;8.30;99.90;;;;;;4996219;28;20257;-81
2020/12/15 06:02:42;;;;;;;7.60;4.47;;;8.30;99.90;;;;;;4996658;28;20251;-81
2020/12/15 06:05:07;;;;;;;4.70;3.73;;;8.30;99.90;;;;;;4998935;28;20188;-81
2020/12/15 06:07:33;;;;;;;7.20;4.53;;;8.30;99.90;;;;;;4998135;28;20545;-80
2020/12/15 06:09:59;;;;;;;6.40;4.07;;;8.30;99.90;;;;;;4998400;28;20717;-80
2020/12/15 06:12:24;;;;;;;4.80;4.20;;;8.40;99.90;;;;;;4998849;28;20209;-79
2020/12/15 06:14:50;;;;;;;6.10;4.60;;;8.30;99.90;;;;;;5014577;28;20197;-80
2020/12/15 06:17:18;;;;;;;5.93;4.60;;;8.30;99.90;;;;;;4998430;28;20179;-80
2020/12/15 06:19:43;;;;;;;6.60;4.53;;;8.30;99.90;;;;;;4991621;28;20215;-78
2020/12/15 06:22:09;;;;;;;6.30;4.97;;;8.30;99.90;;;;;;5003901;28;20200;-79
2020/12/15 06:24:40;;;;;;;6.63;4.53;;;8.40;99.90;;;;;;5012319;28;20191;-80
2020/12/15 06:27:11;;;;;;;5.47;4.63;;;8.30;99.90;;;;;;4994439;28;20202;-81
2020/12/15 06:29:40;;;;;;;6.07;4.60;;;8.30;99.90;;;;;;4991831;28;20211;-80
2020/12/15 06:32:24;;;;;;;8.20;5.33;;;8.30;99.90;;;;;;4993330;28;20622;-82
2020/12/15 06:34:50;;;;;;;7.60;4.57;;;8.40;99.90;;;;;;4991163;28;20643;-80
2020/12/15 06:37:16;;;;;;;6.17;4.57;;;8.30;99.90;;;;;;5008521;28;20202;-83
2020/12/15 06:39:55;;;;;;;6.50;4.80;;;8.30;99.90;;;;;;4992192;28;20208;-80
2020/12/15 06:42:21;;;;;;;6.37;5.47;;;8.30;99.90;;;;;;5003361;28;20262;-85
2020/12/15 06:45:04;;;;;;;7.37;5.03;;;8.30;99.90;;;;;;5006963;28;20183;-81
2020/12/15 06:47:30;;;;;;;7.00;5.40;;;8.20;99.90;;;;;;4984606;28;20184;-82
2020/12/15 06:49:56;;;;;;;7.67;5.00;;;8.20;99.90;;;;;;5006638;28;20579;-83
2020/12/15 06:52:28;;;;;;;7.63;5.10;;;8.20;99.90;;;;;;4991648;28;20198;-81
2020/12/15 06:54:57;;;;;;;7.37;5.70;;;8.30;99.90;;;;;;5004107;28;20184;-80
2020/12/15 06:57:33;;;;;;;7.17;5.20;;;8.30;99.90;;;;;;4985708;28;20180;-79
2020/12/15 06:59:59;;;;;;;7.00;5.43;;;8.20;99.90;;;;;;5003609;28;20190;-79
2020/12/15 07:02:29;;;;;;;7.13;5.13;;;8.20;99.90;;;;;;4986962;28;20677;-80
2020/12/15 07:05:12;;;;;;;6.53;5.43;;;8.10;99.90;;;;;;4988651;28;20237;-81
2020/12/15 07:07:49;;;;;;;9.87;5.00;;;8.20;99.90;;;;;;5005832;28;20271;-82
2020/12/15 07:10:15;;;;;;;8.50;5.53;;;8.30;99.90;;;;;;5004708;28;20685;-85
2020/12/15 07:12:41;;;;;;;7.47;5.20;;;8.30;99.90;;;;;;4988633;28;20231;-84
2020/12/15 07:15:07;;;;;;;6.97;5.07;;;8.30;99.90;;;;;;4983177;28;20172;-82
2020/12/15 07:17:33;;;;;;;5.80;4.93;;;8.30;99.90;;;;;;4982068;28;20744;-81
2020/12/15 07:20:01;;;;;;;7.20;4.80;;;8.30;99.90;;;;;;4986796;28;20689;-81
2020/12/15 07:22:26;;;;;;;7.23;4.87;;;8.40;99.90;;;;;;4988044;28;20186;-81
2020/12/15 07:24:52;;;;;;;6.10;4.90;;;8.60;99.90;;;;;;5004188;28;20185;-80
2020/12/15 07:27:18;;;;;;;5.90;5.07;;;8.60;99.90;;;;;;5001511;28;20231;-82
2020/12/15 07:29:52;;;;;;;8.23;5.07;;;8.60;99.90;;;;;;4984304;28;20204;-81
2020/12/15 07:32:18;;;;;;;7.80;5.30;;;8.50;99.90;;;;;;4986121;28;20204;-82
2020/12/15 07:34:43;;;;;;;7.33;5.87;;;8.60;99.90;;;;;;5002164;28;20171;-82
2020/12/15 07:37:09;;;;;;;6.70;5.33;;;8.60;99.90;;;;;;4985903;28;20557;-80
2020/12/15 07:39:34;;;;;;;8.33;6.40;;;8.70;99.90;;;;;;5001608;28;20569;-82
2020/12/15 07:42:04;;;;;;;10.73;7.17;;;8.70;99.90;;;;;;5000275;28;20171;-80
2020/12/15 07:44:29;;;;;;;7.37;6.03;;;8.60;99.90;;;;;;4982851;28;20243;-82
2020/12/15 07:46:55;;;;;;;7.30;5.87;;;8.60;99.90;;;;;;4999044;28;20184;-80
2020/12/15 07:49:21;;;;;;;8.77;6.43;;;8.50;99.90;;;;;;4982826;28;20576;-80
2020/12/15 07:51:46;;;;;;;8.53;5.67;;;8.50;99.90;;;;;;4981890;28;20203;-81
2020/12/15 07:54:13;;;;;;;6.77;5.63;;;8.50;99.90;;;;;;4980294;28;20176;-80
2020/12/15 07:56:38;;;;;;;8.87;6.00;;;8.50;99.90;;;;;;4997043;28;20175;-81
2020/12/15 07:59:04;;;;;;;8.03;6.20;;;8.50;99.90;;;;;;4980155;28;20577;-79
2020/12/15 08:01:30;;;;;;;8.87;5.80;;;8.50;99.90;;;;;;4981636;28;20190;-80
2020/12/15 08:04:14;;;;;;;6.97;5.73;;;8.50;99.90;;;;;;4981231;28;20182;-77
2020/12/15 08:06:45;;;;;;;8.20;5.73;;;8.50;99.90;;;;;;4978992;28;20191;-79
2020/12/15 08:09:12;;;;;;;6.77;5.57;;;8.50;99.90;;;;;;4979473;28;20207;-79
2020/12/15 08:11:45;;;;;;;8.73;5.63;;;8.50;99.90;;;;;;4979383;28;20212;-80
2020/12/15 08:14:15;;;;;;;7.27;5.87;;;8.50;99.90;;;;;;4980301;28;20172;-80
2020/12/15 08:16:41;;;;;;;11.03;6.70;;;8.60;99.90;;;;;;4983440;28;20861;-81
2020/12/15 08:19:07;;;;;;;9.40;6.17;;;8.50;99.90;;;;;;4988263;28;20255;-86
2020/12/15 08:21:45;;;;;;;11.53;6.87;;;8.50;99.90;;;;;;5001664;28;20285;-81
2020/12/15 08:24:12;;;;;;;9.67;6.27;;;8.50;99.90;;;;;;5005826;28;20179;-82
2020/12/15 08:26:41;;;;;;;9.07;6.57;;;8.50;99.90;;;;;;4982876;28;20179;-81
2020/12/15 08:29:11;;;;;;;10.00;6.50;;;8.50;99.90;;;;;;4980740;28;20203;-81
2020/12/15 08:31:43;;;;;;;7.70;5.80;;;8.50;99.90;;;;;;4983194;28;20203;-81
2020/12/15 08:34:18;;;;;;;9.43;6.20;;;8.50;99.90;;;;;;4980478;28;20266;-81
2020/12/15 08:36:54;;;;;;;9.40;6.43;;;8.50;99.90;;;;;;4979753;28;20175;-82
2020/12/15 08:39:24;;;;;;;9.33;6.67;;;8.50;99.90;;;;;;4975609;28;20278;-82
2020/12/15 08:41:51;;;;;;;10.00;6.80;;;8.50;99.90;;;;;;4996275;28;20180;-81
2020/12/15 08:44:16;;;;;;;7.50;6.33;;;8.50;99.90;;;;;;4980041;28;20617;-81
2020/12/15 08:46:42;;;;;;;9.80;6.77;;;8.60;99.90;;;;;;4995900;28;20193;-80
2020/12/15 08:49:12;;;;;;;11.70;7.53;;;8.60;99.90;;;;;;4980643;28;20201;-80
2020/12/15 08:51:40;;;;;;;9.80;7.00;;;8.60;99.90;;;;;;4980604;28;20231;-81
2020/12/15 08:54:07;;;;;;;11.33;7.70;;;8.60;99.90;;;;;;4996660;28;20225;-81
2020/12/15 08:56:33;;;;;;;10.17;7.60;;;8.60;99.90;;;;;;4995951;28;20164;-81
2020/12/15 08:59:07;;;;;;;10.07;7.67;;;8.60;99.90;;;;;;4978920;28;20255;-80
2020/12/15 09:01:33;;;;;;;9.70;7.43;;;8.60;99.90;;;;;;4980403;28;20715;-81
2020/12/15 09:03:58;;;;;;;8.90;7.27;;;8.70;99.90;;;;;;4997320;28;20179;-83
2020/12/15 09:06:31;;;;;;;10.27;6.87;;;8.80;99.90;;;;;;4979310;28;20185;-81
2020/12/15 09:08:57;;;;;;;9.10;7.30;;;8.80;99.90;;;;;;4979954;28;20733;-81
2020/12/15 09:11:22;;;;;;;9.47;7.03;;;8.80;99.90;;;;;;4992309;28;20201;-81
2020/12/15 09:13:52;;;;;;;8.83;7.00;;;8.80;99.90;;;;;;4979637;28;20197;-82
2020/12/15 09:16:25;;;;;;;8.00;7.00;;;8.80;99.90;;;;;;4979075;28;20201;-81
2020/12/15 09:18:51;;;;;;;9.33;7.17;;;8.80;99.90;;;;;;4979903;28;20242;-80
2020/12/15 09:21:18;;;;;;;8.57;7.07;;;8.90;99.90;;;;;;4996140;28;20168;-81
2020/12/15 09:23:53;;;;;;;9.80;7.10;;;8.90;99.90;;;;;;4981170;28;20211;-80
2020/12/15 09:26:19;;;;;;;10.73;7.57;;;8.90;99.90;;;;;;4980561;28;20243;-80
2020/12/15 09:28:45;;;;;;;8.57;7.20;;;8.90;99.90;;;;;;4997998;28;20181;-80
2020/12/15 09:31:14;;;;;;;7.57;6.80;;;8.90;99.90;;;;;;4982360;28;20299;-81
2020/12/15 09:33:40;;;;;;;9.67;7.70;;;8.90;99.90;;;;;;4980500;28;20180;-80
2020/12/15 09:36:05;;;;;;;7.03;6.20;;;8.90;99.90;;;;;;4979102;28;20194;-80
2020/12/15 09:38:31;;;;;;;7.80;6.70;;;9.00;99.90;;;;;;4978989;28;20184;-83
2020/12/15 09:44:19;;;;;;;8.63;6.80;;;9.20;99.90;;;;;;5011633;28;20199;-77
2020/12/15 09:46:44;;;;;;;7.00;6.10;;;9.30;99.90;;;;;;4993805;28;20195;-77
2020/12/15 09:49:10;;;;;;;8.57;6.50;;;9.20;99.90;;;;;;4978228;28;20226;-79
2020/12/15 09:51:35;;;;;;;9.97;6.70;;;9.30;99.90;;;;;;4978829;28;20709;-83
2020/12/15 09:54:01;;;;;;;9.67;6.83;;;9.30;99.90;;;;;;4978538;28;20681;-83
2020/12/15 09:56:28;;;;;;;9.07;6.30;;;9.30;99.90;;;;;;4978498;28;20178;-78
2020/12/15 09:58:54;;;;;;;8.53;6.20;;;9.40;99.90;;;;;;4978629;28;20249;-81
2020/12/15 10:01:20;;;;;;;8.67;5.17;;;9.40;99.90;;;;;;4977794;28;20185;-80
2020/12/15 10:03:45;;;;;;;6.67;5.87;;;9.40;99.90;;;;;;4993939;28;20180;-81
2020/12/15 10:06:15;;;;;;;9.40;5.50;;;9.40;99.90;;;;;;4977454;28;20606;-81
2020/12/15 10:08:40;;;;;;;7.50;5.63;;;9.30;99.90;;;;;;4978034;28;20203;-81
2020/12/15 10:11:06;;;;;;;6.77;6.00;;;9.30;99.90;;;;;;4996763;28;20604;-80
2020/12/15 10:13:31;;;;;;;7.17;5.67;;;9.30;99.90;;;;;;4981833;28;20345;-80
2020/12/15 10:15:57;;;;;;;7.23;5.37;;;9.30;99.90;;;;;;4981768;28;20183;-81
2020/12/15 10:18:23;;;;;;;8.60;5.97;;;9.40;99.90;;;;;;4981316;28;20277;-80
2020/12/15 10:20:48;;;;;;;8.43;5.80;;;9.40;99.90;;;;;;4997891;28;20252;-80
2020/12/15 10:23:14;;;;;;;11.90;6.63;;;9.50;99.90;;;;;;4981931;28;20187;-81
2020/12/15 10:25:41;;;;;;;6.33;5.63;;;9.50;99.90;;;;;;4981537;28;20193;-81
2020/12/15 10:28:09;;;;;;;7.20;5.83;;;9.50;99.90;;;;;;4981671;28;20271;-81
2020/12/15 10:30:35;;;;;;;7.33;5.77;;;9.60;99.90;;;;;;4981626;28;20671;-81
2020/12/15 10:33:00;;;;;;;7.60;6.00;;;9.60;99.90;;;;;;4981805;28;20216;-81
2020/12/15 10:35:26;;;;;;;9.03;5.03;;;9.70;99.90;;;;;;4981428;28;20181;-81
2020/12/15 10:37:51;;;;;;;6.93;4.70;;;9.70;99.90;;;;;;4981283;28;20186;-81
2020/12/15 10:40:17;;;;;;;5.60;4.63;;;9.90;99.90;;;;;;4981330;28;20248;-81
2020/12/15 10:42:43;;;;;;;5.43;4.47;;;9.80;99.90;;;;;;4981579;28;20173;-81
2020/12/15 10:45:09;;;;;;;6.37;4.70;;;9.80;99.90;;;;;;4997069;28;20284;-81
2020/12/15 10:47:34;;;;;;;6.87;4.80;;;9.80;99.90;;;;;;4981097;28;20292;-81
2020/12/15 10:50:00;;;;;;;5.73;4.70;;;9.70;99.90;;;;;;4981424;28;20198;-81
2020/12/15 10:52:25;;;;;;;5.67;4.50;;;9.80;99.90;;;;;;4997631;28;20220;-81
2020/12/15 10:54:51;;;;;;;5.93;4.50;;;9.80;99.90;;;;;;4981468;28;20297;-80
2020/12/15 10:57:16;;;;;;;4.90;4.40;;;9.80;99.90;;;;;;4981240;28;20209;-81
2020/12/15 10:59:42;;;;;;;7.30;5.57;;;9.70;99.90;;;;;;4980824;28;20209;-81
2020/12/15 11:02:09;;;;;;;6.90;5.73;;;9.70;99.90;;;;;;4997259;28;20186;-80
2020/12/15 11:04:35;;;;;;;6.73;5.80;;;9.70;99.90;;;;;;4981182;28;20193;-81
2020/12/15 11:07:00;;;;;;;6.90;5.70;;;9.70;99.90;;;;;;4980640;28;20181;-81
2020/12/15 11:09:26;;;;;;;5.07;4.40;;;9.70;99.90;;;;;;4997121;28;20670;-81
2020/12/15 11:11:51;;;;;;;6.43;4.80;;;9.70;99.90;;;;;;4996746;28;20252;-80
2020/12/15 11:14:17;;;;;;;6.37;4.77;;;9.60;99.90;;;;;;4981057;28;20210;-81
2020/12/15 11:16:42;;;;;;;7.60;4.70;;;9.60;99.90;;;;;;4980699;28;20175;-81
2020/12/15 11:19:08;;;;;;;4.80;4.30;;;9.50;99.90;;;;;;4980565;28;20264;-81
2020/12/15 11:21:33;;;;;;;7.13;5.53;;;9.60;99.90;;;;;;4996050;28;20231;-80
2020/12/15 11:23:59;;;;;;;5.50;4.87;;;9.50;99.90;;;;;;4981051;28;20192;-81
2020/12/15 11:26:25;;;;;;;7.37;4.90;;;9.40;99.90;;;;;;4980706;28;20187;-80
2020/12/15 11:28:50;;;;;;;6.57;5.50;;;9.50;99.90;;;;;;4980421;28;20203;-81
2020/12/15 11:31:16;;;;;;;6.23;4.70;;;9.50;99.90;;;;;;4980779;28;20217;-81
2020/12/15 11:33:42;;;;;;;7.20;4.70;;;9.50;99.90;;;;;;4980707;28;20668;-81
2020/12/15 11:36:08;;;;;;;5.30;4.80;;;9.50;99.90;;;;;;4981197;28;20250;-80
2020/12/15 11:38:34;;;;;;;6.77;4.80;;;9.50;99.90;;;;;;4979077;28;20230;-75
2020/12/15 11:40:59;;;;;;;6.40;4.77;;;9.60;99.90;;;;;;4994938;28;20185;-74
2020/12/15 11:43:25;;;;;;;6.87;4.97;;;9.50;99.90;;;;;;5013936;28;20182;-78
2020/12/15 11:45:51;;;;;;;6.67;5.17;;;9.50;99.90;;;;;;4986103;28;20229;-80
2020/12/15 11:48:16;;;;;;;8.30;5.90;;;9.60;99.90;;;;;;4985969;28;20165;-80
2020/12/15 11:50:42;;;;;;;6.83;5.73;;;9.50;99.90;;;;;;4992469;28;20203;-81
2020/12/15 11:53:07;;;;;;;7.60;5.90;;;9.60;99.90;;;;;;4985209;28;20180;-78
2020/12/15 11:55:33;;;;;;;6.67;5.40;;;9.50;99.90;;;;;;4983721;28;20198;-83
2020/12/15 11:57:58;;;;;;;6.07;5.47;;;9.60;99.90;;;;;;5001880;28;20177;-79
2020/12/15 12:00:24;;;;;;;11.37;6.00;;;9.50;99.90;;;;;;5000667;28;20219;-82
2020/12/15 12:02:49;;;;;;;7.17;6.30;;;9.50;99.90;;;;;;4999264;28;20167;-76
2020/12/15 12:05:19;;;;;;;7.77;6.63;;;9.50;99.90;;;;;;4981887;28;20601;-77
2020/12/15 12:07:45;;;;;;;7.60;6.80;;;9.50;99.90;;;;;;4984555;28;20187;-78
2020/12/15 12:10:11;;;;;;;9.47;7.00;;;9.50;99.90;;;;;;5000887;28;20236;-80
2020/12/15 12:12:36;;;;;;;10.23;7.37;;;9.50;99.90;;;;;;4999148;28;20230;-77
2020/12/15 12:15:02;;;;;;;8.67;7.40;;;9.50;99.90;;;;;;4996643;28;20174;-77
2020/12/15 12:17:28;;;;;;;8.27;7.23;;;9.50;99.90;;;;;;4999499;28;20193;-78
2020/12/15 12:19:54;;;;;;;9.73;6.30;;;9.50;99.90;;;;;;4997783;28;20249;-77
2020/12/15 12:22:20;;;;;;;6.80;6.10;;;9.50;99.90;;;;;;4998369;28;20522;-77
2020/12/15 12:24:45;;;;;;;8.10;6.10;;;9.50;99.90;;;;;;4981536;28;20316;-77
2020/12/15 12:27:11;;;;;;;7.77;6.20;;;9.60;99.90;;;;;;4980823;28;20228;-77
2020/12/15 12:29:36;;;;;;;7.67;5.73;;;9.50;99.90;;;;;;4981281;28;20296;-77
2020/12/15 12:32:02;;;;;;;6.60;5.87;;;9.50;99.90;;;;;;4980631;28;20505;-77
2020/12/15 12:34:28;;;;;;;7.00;5.90;;;9.50;99.90;;;;;;4996618;28;20182;-78
2020/12/15 12:36:53;;;;;;;7.70;6.17;;;9.50;99.90;;;;;;4977549;28;20725;-76
2020/12/15 12:39:19;;;;;;;8.27;6.23;;;9.50;99.90;;;;;;4994634;28;20664;-77
2020/12/15 12:41:49;;;;;;;7.50;6.33;;;9.50;99.90;;;;;;4985104;28;20827;-78
2020/12/15 12:44:15;;;;;;;8.47;6.07;;;9.50;99.90;;;;;;4995656;28;20182;-77
2020/12/15 12:46:40;;;;;;;8.20;6.13;;;9.40;99.90;;;;;;4978838;28;20176;-84
2020/12/15 12:49:07;;;;;;;10.97;6.50;;;9.50;99.90;;;;;;4982297;28;20204;-80
2020/12/15 12:51:32;;;;;;;9.30;6.20;;;9.50;99.90;;;;;;5000822;28;20253;-77
2020/12/15 12:53:58;;;;;;;8.57;7.33;;;9.40;99.90;;;;;;4962850;28;20175;-77
2020/12/15 12:56:23;;;;;;;8.43;6.23;;;9.40;99.90;;;;;;4979950;28;20170;-77
2020/12/15 12:58:49;;;;;;;8.97;7.37;;;9.50;99.90;;;;;;5014007;28;20178;-77